sensor_id;sensor_type;location;lat;lon;timestamp;pressure;altitude;pressure_sealevel;temperature;humidity
70304;BME280;57712;48.752;11.348;2023-03-04T00:00:40;97888.91;;;0.30;100.00
70304;BME280;57712;48.752;11.348;2023-03-04T00:03:10;97882.72;;;0.42;100.00
70304;BME280;57712;48.752;11.348;2023-03-04T00:05:40;97887.78;;;0.43;100.00
70304;BME280;57712;48.752;11.348;2023-03-04T00:08:06;97887.00;;;0.43;100.00
70304;BME280;57712;48.752;11.348;2023-03-04T00:10:33;97899.47;;;0.35;100.00
70304;BME280;57712;48.752;11.348;2023-03-04T00:12:59;97888.91;;;0.30;100.00
70304;BME280;57712;48.752;11.348;2023-03-04T00:15:26;97891.41;;;0.23;100.00
70304;BME280;57712;48.752;11.348;2023-03-04T00:17:52;97894.00;;;0.19;100.00
70304;BME280;57712;48.752;11.348;2023-03-04T00:20:19;97892.44;;;0.18;100.00
70304;BME280;57712;48.752;11.348;2023-03-04T00:22:45;97892.34;;;0.15;100.00
70304;BME280;57712;48.752;11.348;2023-03-04T00:25:13;97892.13;;;0.08;100.00
70304;BME280;57712;48.752;11.348;2023-03-04T00:27:40;97893.59;;;0.05;100.00
70304;BME280;57712;48.752;11.348;2023-03-04T00:30:07;97895.25;;;0.10;100.00
70304;BME280;57712;48.752;11.348;2023-03-04T00:32:34;97897.72;;;0.15;100.00
70304;BME280;57712;48.752;11.348;2023-03-04T00:35:00;97892.34;;;0.15;100.00
70304;BME280;57712;48.752;11.348;2023-03-04T00:37:27;97894.59;;;0.13;100.00
70304;BME280;57712;48.752;11.348;2023-03-04T00:39:53;97890.09;;;0.17;100.00
70304;BME280;57712;48.752;11.348;2023-03-04T00:42:20;97887.72;;;0.15;100.00
70304;BME280;57712;48.752;11.348;2023-03-04T00:44:46;97884.94;;;0.12;100.00
70304;BME280;57712;48.752;11.348;2023-03-04T00:47:15;97891.34;;;0.07;100.00
70304;BME280;57712;48.752;11.348;2023-03-04T00:49:41;97893.91;;;0.16;100.00
70304;BME280;57712;48.752;11.348;2023-03-04T00:52:08;97886.25;;;0.18;100.00
70304;BME280;57712;48.752;11.348;2023-03-04T00:54:34;97891.47;;;0.11;100.00
70304;BME280;57712;48.752;11.348;2023-03-04T00:57:01;97883.81;;;0.13;100.00
70304;BME280;57712;48.752;11.348;2023-03-04T00:59:27;97880.69;;;0.11;100.00
70304;BME280;57712;48.752;11.348;2023-03-04T01:01:54;97881.81;;;-0.03;100.00
70304;BME280;57712;48.752;11.348;2023-03-04T01:04:20;97887.41;;;0.05;100.00
70304;BME280;57712;48.752;11.348;2023-03-04T01:06:47;97882.81;;;0.05;100.00
70304;BME280;57712;48.752;11.348;2023-03-04T01:09:14;97875.44;;;0.02;100.00
70304;BME280;57712;48.752;11.348;2023-03-04T01:11:40;97878.00;;;-0.02;100.00
70304;BME280;57712;48.752;11.348;2023-03-04T01:14:07;97872.38;;;0.04;100.00
70304;BME280;57712;48.752;11.348;2023-03-04T01:16:33;97871.94;;;0.02;100.00
70304;BME280;57712;48.752;11.348;2023-03-04T01:19:00;97872.38;;;0.04;100.00
70304;BME280;57712;48.752;11.348;2023-03-04T01:21:27;97873.53;;;0.03;100.00
70304;BME280;57712;48.752;11.348;2023-03-04T01:23:53;97873.16;;;0.04;100.00
70304;BME280;57712;48.752;11.348;2023-03-04T01:26:20;97864.09;;;-0.04;100.00
70304;BME280;57712;48.752;11.348;2023-03-04T01:28:46;97873.53;;;0.03;100.00
70304;BME280;57712;48.752;11.348;2023-03-04T01:31:13;97866.34;;;-0.06;100.00
70304;BME280;57712;48.752;11.348;2023-03-04T01:33:39;97859.84;;;-0.05;100.00
70304;BME280;57712;48.752;11.348;2023-03-04T01:36:06;97857.16;;;-0.17;100.00
70304;BME280;57712;48.752;11.348;2023-03-04T01:38:33;97858.97;;;-0.09;100.00
70304;BME280;57712;48.752;11.348;2023-03-04T01:41:00;97858.06;;;-0.13;100.00
70304;BME280;57712;48.752;11.348;2023-03-04T01:43:28;97859.88;;;-0.17;100.00
70304;BME280;57712;48.752;11.348;2023-03-04T01:45:56;97853.69;;;-0.17;100.00
70304;BME280;57712;48.752;11.348;2023-03-04T01:48:26;97845.75;;;-0.26;100.00
70304;BME280;57712;48.752;11.348;2023-03-04T01:50:54;97853.03;;;-0.26;100.00
70304;BME280;57712;48.752;11.348;2023-03-04T01:53:23;97854.06;;;-0.31;100.00
70304;BME280;57712;48.752;11.348;2023-03-04T01:56:00;97841.50;;;-0.27;100.00
70304;BME280;57712;48.752;11.348;2023-03-04T01:58:29;97847.09;;;-0.32;100.00
70304;BME280;57712;48.752;11.348;2023-03-04T02:00:56;97841.03;;;-0.29;100.00
70304;BME280;57712;48.752;11.348;2023-03-04T02:03:24;97841.59;;;-0.36;100.00
70304;BME280;57712;48.752;11.348;2023-03-04T02:05:51;97839.47;;;-0.30;100.00
70304;BME280;57712;48.752;11.348;2023-03-04T02:08:21;97842.47;;;-0.32;100.00
70304;BME280;57712;48.752;11.348;2023-03-04T02:10:48;97836.31;;;-0.32;100.00
70304;BME280;57712;48.752;11.348;2023-03-04T02:13:15;97843.06;;;-0.38;100.00
70304;BME280;57712;48.752;11.348;2023-03-04T02:15:44;97838.47;;;-0.38;100.00
70304;BME280;57712;48.752;11.348;2023-03-04T02:18:16;97836.56;;;-0.37;100.00
70304;BME280;57712;48.752;11.348;2023-03-04T02:23:40;97831.41;;;-0.42;100.00
70304;BME280;57712;48.752;11.348;2023-03-04T02:26:18;97836.00;;;-0.43;100.00
70304;BME280;57712;48.752;11.348;2023-03-04T02:28:47;97838.38;;;-0.41;100.00
70304;BME280;57712;48.752;11.348;2023-03-04T02:31:32;97831.88;;;-0.40;100.00
70304;BME280;57712;48.752;11.348;2023-03-04T02:34:01;97836.00;;;-0.43;100.00
70304;BME280;57712;48.752;11.348;2023-03-04T02:36:29;97836.00;;;-0.43;100.00
70304;BME280;57712;48.752;11.348;2023-03-04T02:39:01;97834.56;;;-0.40;100.00
70304;BME280;57712;48.752;11.348;2023-03-04T02:41:30;97835.91;;;-0.46;100.00
70304;BME280;57712;48.752;11.348;2023-03-04T02:43:56;97838.38;;;-0.41;100.00
70304;BME280;57712;48.752;11.348;2023-03-04T02:46:23;97840.84;;;-0.48;100.00
70304;BME280;57712;48.752;11.348;2023-03-04T02:48:50;97843.09;;;-0.50;100.00
70304;BME280;57712;48.752;11.348;2023-03-04T02:51:17;97847.34;;;-0.49;100.00
70304;BME280;57712;48.752;11.348;2023-03-04T02:53:45;97847.53;;;-0.42;100.00
70304;BME280;57712;48.752;11.348;2023-03-04T02:56:11;97843.53;;;-0.48;100.00
70304;BME280;57712;48.752;11.348;2023-03-04T02:58:38;97846.56;;;-0.50;100.00
70304;BME280;57712;48.752;11.348;2023-03-04T03:01:05;97847.34;;;-0.49;100.00
70304;BME280;57712;48.752;11.348;2023-03-04T03:03:32;97844.75;;;-0.58;100.00
70304;BME280;57712;48.752;11.348;2023-03-04T03:05:58;97846.22;;;-0.61;100.00
70304;BME280;57712;48.752;11.348;2023-03-04T03:08:25;97840.06;;;-0.61;100.00
70304;BME280;57712;48.752;11.348;2023-03-04T03:10:51;97845.13;;;-0.72;100.00
70304;BME280;57712;48.752;11.348;2023-03-04T03:13:18;97842.09;;;-0.70;100.00
70304;BME280;57712;48.752;11.348;2023-03-04T03:15:44;97844.88;;;-0.79;100.00
70304;BME280;57712;48.752;11.348;2023-03-04T03:18:13;97843.75;;;-0.78;100.00
70304;BME280;57712;48.752;11.348;2023-03-04T03:20:39;97848.25;;;-0.82;100.00
70304;BME280;57712;48.752;11.348;2023-03-04T03:23:07;97847.47;;;-0.82;100.00
70304;BME280;57712;48.752;11.348;2023-03-04T03:25:34;97844.88;;;-0.91;100.00
70304;BME280;57712;48.752;11.348;2023-03-04T03:28:00;97846.00;;;-0.92;100.00
70304;BME280;57712;48.752;11.348;2023-03-04T03:30:27;97845.06;;;-0.96;100.00
70304;BME280;57712;48.752;11.348;2023-03-04T03:32:53;97846.34;;;-0.94;100.00
70304;BME280;57712;48.752;11.348;2023-03-04T03:35:20;97850.47;;;-0.84;100.00
70304;BME280;57712;48.752;11.348;2023-03-04T03:37:47;97847.56;;;-0.91;100.00
70304;BME280;57712;48.752;11.348;2023-03-04T03:40:14;97840.38;;;-0.87;100.00
70304;BME280;57712;48.752;11.348;2023-03-04T03:42:41;97840.72;;;-0.89;100.00
70304;BME280;57712;48.752;11.348;2023-03-04T03:45:08;97835.25;;;-0.92;100.00
70304;BME280;57712;48.752;11.348;2023-03-04T03:47:34;97840.38;;;-0.99;100.00
70304;BME280;57712;48.752;11.348;2023-03-04T03:50:01;97831.19;;;-0.98;100.00
70304;BME280;57712;48.752;11.348;2023-03-04T03:52:28;97843.25;;;-1.04;100.00
70304;BME280;57712;48.752;11.348;2023-03-04T03:54:54;97831.63;;;-1.08;100.00
70304;BME280;57712;48.752;11.348;2023-03-04T03:57:21;97836.31;;;-1.05;100.00
70304;BME280;57712;48.752;11.348;2023-03-04T03:59:47;97836.88;;;-1.12;100.00
70304;BME280;57712;48.752;11.348;2023-03-04T04:02:14;97834.66;;;-1.10;100.00
70304;BME280;57712;48.752;11.348;2023-03-04T04:04:40;97833.88;;;-1.10;100.00
70304;BME280;57712;48.752;11.348;2023-03-04T04:07:07;97827.34;;;-1.22;100.00
70304;BME280;57712;48.752;11.348;2023-03-04T04:09:33;97825.56;;;-1.18;100.00
70304;BME280;57712;48.752;11.348;2023-03-04T04:12:00;97832.50;;;-1.17;100.00
70304;BME280;57712;48.752;11.348;2023-03-04T04:14:26;97827.09;;;-1.29;100.00
70304;BME280;57712;48.752;11.348;2023-03-04T04:16:53;97825.78;;;-1.23;100.00
70304;BME280;57712;48.752;11.348;2023-03-04T04:19:19;97826.22;;;-1.21;100.00
70304;BME280;57712;48.752;11.348;2023-03-04T04:21:46;97831.16;;;-1.23;100.00
70304;BME280;57712;48.752;11.348;2023-03-04T04:24:13;97836.31;;;-1.18;100.00
70304;BME280;57712;48.752;11.348;2023-03-04T04:26:40;97829.59;;;-1.24;100.00
70304;BME280;57712;48.752;11.348;2023-03-04T04:29:07;97829.44;;;-1.27;100.00
70304;BME280;57712;48.752;11.348;2023-03-04T04:31:34;97835.28;;;-1.25;100.00
70304;BME280;57712;48.752;11.348;2023-03-04T04:34:01;97835.63;;;-1.27;100.00
70304;BME280;57712;48.752;11.348;2023-03-04T04:36:27;97834.72;;;-1.31;100.00
70304;BME280;57712;48.752;11.348;2023-03-04T04:38:54;97839.28;;;-1.43;100.00
70304;BME280;57712;48.752;11.348;2023-03-04T04:41:27;97839.84;;;-1.38;100.00
70304;BME280;57712;48.752;11.348;2023-03-04T04:43:54;97840.06;;;-1.43;100.00
70304;BME280;57712;48.752;11.348;2023-03-04T04:46:21;97834.25;;;-1.45;100.00
70304;BME280;57712;48.752;11.348;2023-03-04T04:48:48;97838.03;;;-1.46;100.00
70304;BME280;57712;48.752;11.348;2023-03-04T04:51:14;97837.56;;;-1.48;100.00
70304;BME280;57712;48.752;11.348;2023-03-04T04:53:41;97836.44;;;-1.47;100.00
70304;BME280;57712;48.752;11.348;2023-03-04T04:56:13;97832.53;;;-1.50;100.00
70304;BME280;57712;48.752;11.348;2023-03-04T04:58:40;97835.22;;;-1.50;100.00
70304;BME280;57712;48.752;11.348;2023-03-04T05:01:06;97837.78;;;-1.53;100.00
70304;BME280;57712;48.752;11.348;2023-03-04T05:03:34;97840.81;;;-1.55;100.00
70304;BME280;57712;48.752;11.348;2023-03-04T05:06:03;97836.88;;;-1.57;100.00
70304;BME280;57712;48.752;11.348;2023-03-04T05:08:30;97843.34;;;-1.58;100.00
70304;BME280;57712;48.752;11.348;2023-03-04T05:10:56;97843.84;;;-1.56;100.00
70304;BME280;57712;48.752;11.348;2023-03-04T05:13:24;97848.94;;;-1.63;100.00
70304;BME280;57712;48.752;11.348;2023-03-04T05:15:51;97854.31;;;-1.63;100.00
70304;BME280;57712;48.752;11.348;2023-03-04T05:18:19;97853.66;;;-1.60;100.00
70304;BME280;57712;48.752;11.348;2023-03-04T05:20:51;97851.19;;;-1.65;100.00
70304;BME280;57712;48.752;11.348;2023-03-04T05:23:17;97848.03;;;-1.67;100.00
70304;BME280;57712;48.752;11.348;2023-03-04T05:25:44;97843.88;;;-1.77;100.00
70304;BME280;57712;48.752;11.348;2023-03-04T05:28:11;97850.66;;;-1.80;100.00
70304;BME280;57712;48.752;11.348;2023-03-04T05:30:39;97847.63;;;-1.78;100.00
70304;BME280;57712;48.752;11.348;2023-03-04T05:33:06;97848.19;;;-1.85;100.00
70304;BME280;57712;48.752;11.348;2023-03-04T05:35:35;97848.03;;;-1.88;100.00
70304;BME280;57712;48.752;11.348;2023-03-04T05:38:03;97846.81;;;-1.91;100.00
70304;BME280;57712;48.752;11.348;2023-03-04T05:40:31;97844.91;;;-1.90;100.00
70304;BME280;57712;48.752;11.348;2023-03-04T05:42:58;97851.72;;;-1.93;100.00
70304;BME280;57712;48.752;11.348;2023-03-04T05:45:25;97851.94;;;-1.98;100.00
70304;BME280;57712;48.752;11.348;2023-03-04T05:47:53;97854.13;;;-2.00;100.00
70304;BME280;57712;48.752;11.348;2023-03-04T05:50:21;97844.97;;;-1.99;100.00
70304;BME280;57712;48.752;11.348;2023-03-04T05:52:49;97857.31;;;-1.98;100.00
70304;BME280;57712;48.752;11.348;2023-03-04T05:55:16;97857.31;;;-1.98;100.00
70304;BME280;57712;48.752;11.348;2023-03-04T05:57:43;97848.03;;;-1.88;100.00
70304;BME280;57712;48.752;11.348;2023-03-04T06:00:11;97859.31;;;-1.95;100.00
70304;BME280;57712;48.752;11.348;2023-03-04T06:02:39;97853.94;;;-1.95;100.00
70304;BME280;57712;48.752;11.348;2023-03-04T06:05:08;97854.19;;;-1.88;100.00
70304;BME280;57712;48.752;11.348;2023-03-04T06:07:35;97859.31;;;-1.95;100.00
70304;BME280;57712;48.752;11.348;2023-03-04T06:10:02;97860.44;;;-1.96;100.00
70304;BME280;57712;48.752;11.348;2023-03-04T06:12:28;97865.06;;;-1.84;100.00
70304;BME280;57712;48.752;11.348;2023-03-04T06:14:55;97874.63;;;-1.95;100.00
70304;BME280;57712;48.752;11.348;2023-03-04T06:17:22;97876.59;;;-1.84;100.00
70304;BME280;57712;48.752;11.348;2023-03-04T06:19:48;97876.59;;;-1.84;100.00
70304;BME280;57712;48.752;11.348;2023-03-04T06:22:15;97878.84;;;-1.86;100.00
70304;BME280;57712;48.752;11.348;2023-03-04T06:24:41;97885.38;;;-1.75;100.00
70304;BME280;57712;48.752;11.348;2023-03-04T06:27:08;97890.59;;;-1.78;100.00
70304;BME280;57712;48.752;11.348;2023-03-04T06:29:35;97889.41;;;-1.68;100.00
70304;BME280;57712;48.752;11.348;2023-03-04T06:32:04;97899.81;;;-1.67;100.00
70304;BME280;57712;48.752;11.348;2023-03-04T06:34:31;97887.31;;;-1.63;100.00
70304;BME280;57712;48.752;11.348;2023-03-04T06:36:59;97897.56;;;-1.56;100.00
70304;BME280;57712;48.752;11.348;2023-03-04T06:39:25;97894.38;;;-1.58;100.00
70304;BME280;57712;48.752;11.348;2023-03-04T06:41:52;97906.69;;;-1.57;100.00
70304;BME280;57712;48.752;11.348;2023-03-04T06:44:19;97906.06;;;-1.54;100.00
70304;BME280;57712;48.752;11.348;2023-03-04T06:46:46;97908.53;;;-1.49;100.00
70304;BME280;57712;48.752;11.348;2023-03-04T06:49:12;97904.88;;;-1.44;100.00
70304;BME280;57712;48.752;11.348;2023-03-04T06:51:39;97905.66;;;-1.44;100.00
70304;BME280;57712;48.752;11.348;2023-03-04T06:54:06;97910.47;;;-1.37;100.00
70304;BME280;57712;48.752;11.348;2023-03-04T06:56:33;97918.28;;;-1.24;100.00
70304;BME280;57712;48.752;11.348;2023-03-04T06:58:59;97917.38;;;-1.16;100.00
70304;BME280;57712;48.752;11.348;2023-03-04T07:01:27;97919.00;;;-1.02;100.00
70304;BME280;57712;48.752;11.348;2023-03-04T07:03:55;97916.53;;;-0.95;100.00
70304;BME280;57712;48.752;11.348;2023-03-04T07:06:25;97912.09;;;-0.79;100.00
70304;BME280;57712;48.752;11.348;2023-03-04T07:08:54;97920.28;;;-0.75;100.00
70304;BME280;57712;48.752;11.348;2023-03-04T07:11:21;97925.38;;;-0.62;100.00
70304;BME280;57712;48.752;11.348;2023-03-04T07:13:48;97919.41;;;-0.55;100.00
70304;BME280;57712;48.752;11.348;2023-03-04T07:16:17;97929.63;;;-0.48;100.00
70304;BME280;57712;48.752;11.348;2023-03-04T07:18:45;97925.13;;;-0.32;100.00
70304;BME280;57712;48.752;11.348;2023-03-04T07:21:13;97932.56;;;-0.29;100.00
70304;BME280;57712;48.752;11.348;2023-03-04T07:23:40;97925.25;;;-0.16;100.00
70304;BME280;57712;48.752;11.348;2023-03-04T07:26:07;97930.28;;;-0.03;100.00
70304;BME280;57712;48.752;11.348;2023-03-04T07:28:34;97934.00;;;-0.07;100.00
70304;BME280;57712;48.752;11.348;2023-03-04T07:31:31;97939.66;;;0.28;100.00
70304;BME280;57712;48.752;11.348;2023-03-04T07:34:04;97940.56;;;0.32;100.00
70304;BME280;57712;48.752;11.348;2023-03-04T07:36:34;97940.25;;;0.62;100.00
70304;BME280;57712;48.752;11.348;2023-03-04T07:39:00;97945.41;;;0.67;100.00
70304;BME280;57712;48.752;11.348;2023-03-04T07:41:28;97954.44;;;0.86;100.00
70304;BME280;57712;48.752;11.348;2023-03-04T07:43:56;97957.09;;;0.58;100.00
70304;BME280;57712;48.752;11.348;2023-03-04T07:46:24;97964.78;;;0.72;100.00
70304;BME280;57712;48.752;11.348;2023-03-04T07:48:50;97966.38;;;1.01;100.00
70304;BME280;57712;48.752;11.348;2023-03-04T07:51:22;97965.31;;;1.34;100.00
70304;BME280;57712;48.752;11.348;2023-03-04T07:53:54;97968.00;;;1.34;100.00
70304;BME280;57712;48.752;11.348;2023-03-04T07:56:23;97968.91;;;1.38;100.00
70304;BME280;57712;48.752;11.348;2023-03-04T07:58:51;97976.22;;;1.53;100.00
70304;BME280;57712;48.752;11.348;2023-03-04T08:01:28;97964.13;;;1.47;100.00
70304;BME280;57712;48.752;11.348;2023-03-04T08:03:55;97968.53;;;1.55;100.00
70304;BME280;57712;48.752;11.348;2023-03-04T08:06:22;97970.81;;;1.85;100.00
70304;BME280;57712;48.752;11.348;2023-03-04T08:08:54;97979.72;;;1.69;100.00
70304;BME280;57712;48.752;11.348;2023-03-04T08:11:21;97972.91;;;1.76;100.00
70304;BME280;57712;48.752;11.348;2023-03-04T08:13:48;97985.47;;;1.84;100.00
70304;BME280;57712;48.752;11.348;2023-03-04T08:16:17;97969.97;;;1.81;100.00
70304;BME280;57712;48.752;11.348;2023-03-04T08:18:46;97981.19;;;1.83;100.00
70304;BME280;57712;48.752;11.348;2023-03-04T08:21:16;97973.63;;;1.72;100.00
70304;BME280;57712;48.752;11.348;2023-03-04T08:23:45;97979.19;;;1.80;100.00
70304;BME280;57712;48.752;11.348;2023-03-04T08:26:15;97983.28;;;1.58;100.00
70304;BME280;57712;48.752;11.348;2023-03-04T08:28:42;97977.88;;;1.58;100.00
70304;BME280;57712;48.752;11.348;2023-03-04T08:31:15;97982.59;;;1.61;100.00
70304;BME280;57712;48.752;11.348;2023-03-04T08:33:42;97983.56;;;1.68;100.00
70304;BME280;57712;48.752;11.348;2023-03-04T08:36:13;97996.75;;;1.42;100.00
70304;BME280;57712;48.752;11.348;2023-03-04T08:38:39;98001.91;;;1.63;100.00
70304;BME280;57712;48.752;11.348;2023-03-04T08:41:06;97997.19;;;1.00;100.00
70304;BME280;57712;48.752;11.348;2023-03-04T08:43:33;98002.47;;;0.97;100.00
70304;BME280;57712;48.752;11.348;2023-03-04T08:46:00;98005.47;;;1.07;100.00
70304;BME280;57712;48.752;11.348;2023-03-04T08:48:27;97998.25;;;0.83;100.00
70304;BME280;57712;48.752;11.348;2023-03-04T08:50:53;98001.66;;;1.24;100.00
70304;BME280;57712;48.752;11.348;2023-03-04T08:53:20;98002.81;;;0.95;100.00
70304;BME280;57712;48.752;11.348;2023-03-04T08:55:47;98005.22;;;1.12;100.00
70304;BME280;57712;48.752;11.348;2023-03-04T08:58:13;98008.41;;;1.02;100.00
70304;BME280;57712;48.752;11.348;2023-03-04T09:00:43;98012.53;;;0.84;100.00
70304;BME280;57712;48.752;11.348;2023-03-04T09:03:12;98013.72;;;0.99;100.00
70304;BME280;57712;48.752;11.348;2023-03-04T09:05:39;98012.47;;;1.24;100.00
70304;BME280;57712;48.752;11.348;2023-03-04T09:08:06;98011.56;;;1.48;100.00
70304;BME280;57712;48.752;11.348;2023-03-04T09:10:34;98012.34;;;1.49;100.00
70304;BME280;57712;48.752;11.348;2023-03-04T09:13:01;98013.50;;;1.48;100.00
70304;BME280;57712;48.752;11.348;2023-03-04T09:15:27;98020.03;;;1.47;100.00
70304;BME280;57712;48.752;11.348;2023-03-04T09:17:54;98018.81;;;1.60;100.00
70304;BME280;57712;48.752;11.348;2023-03-04T09:20:21;98025.16;;;1.52;100.00
70304;BME280;57712;48.752;11.348;2023-03-04T09:22:48;98022.13;;;1.85;100.00
70304;BME280;57712;48.752;11.348;2023-03-04T09:25:15;98016.91;;;1.60;100.00
70304;BME280;57712;48.752;11.348;2023-03-04T09:27:43;98015.22;;;1.40;100.00
70304;BME280;57712;48.752;11.348;2023-03-04T09:30:10;98021.66;;;1.51;100.00
70304;BME280;57712;48.752;11.348;2023-03-04T09:32:37;98024.22;;;1.60;100.00
70304;BME280;57712;48.752;11.348;2023-03-04T09:35:04;98012.66;;;1.31;100.00
70304;BME280;57712;48.752;11.348;2023-03-04T09:37:32;98012.47;;;1.24;100.00
70304;BME280;57712;48.752;11.348;2023-03-04T09:39:59;98015.75;;;1.61;100.00
70304;BME280;57712;48.752;11.348;2023-03-04T09:42:39;98021.25;;;1.49;100.00
70304;BME280;57712;48.752;11.348;2023-03-04T09:45:12;98014.75;;;1.82;100.00
70304;BME280;57712;48.752;11.348;2023-03-04T09:47:42;98019.53;;;1.88;100.00
70304;BME280;57712;48.752;11.348;2023-03-04T09:50:11;98013.69;;;2.02;100.00
70304;BME280;57712;48.752;11.348;2023-03-04T09:55:39;98026.91;;;2.07;100.00
70304;BME280;57712;48.752;11.348;2023-03-04T10:01:06;98024.22;;;1.60;100.00
70304;BME280;57712;48.752;11.348;2023-03-04T10:03:45;98016.03;;;2.03;100.00
70304;BME280;57712;48.752;11.348;2023-03-04T10:06:19;98026.94;;;1.91;100.00
70304;BME280;57712;48.752;11.348;2023-03-04T10:08:51;98021.53;;;1.76;100.00
70304;BME280;57712;48.752;11.348;2023-03-04T10:11:24;98010.91;;;1.83;100.00
70304;BME280;57712;48.752;11.348;2023-03-04T10:16:32;98013.44;;;1.91;100.00
70304;BME280;57712;48.752;11.348;2023-03-04T10:19:30;98010.47;;;2.12;100.00
70304;BME280;57712;48.752;11.348;2023-03-04T10:21:55;98017.88;;;1.84;100.00
70304;BME280;57712;48.752;11.348;2023-03-04T10:24:27;98021.47;;;1.88;100.00
70304;BME280;57712;48.752;11.348;2023-03-04T10:27:01;98018.50;;;2.09;100.00
70304;BME280;57712;48.752;11.348;2023-03-04T10:29:31;98012.22;;;1.89;100.00
70304;BME280;57712;48.752;11.348;2023-03-04T10:31:58;98012.13;;;2.01;100.00
70304;BME280;57712;48.752;11.348;2023-03-04T10:34:25;98010.38;;;1.93;100.00
70304;BME280;57712;48.752;11.348;2023-03-04T10:37:09;98006.19;;;1.95;100.00
70304;BME280;57712;48.752;11.348;2023-03-04T10:39:42;98010.56;;;1.68;100.00
70304;BME280;57712;48.752;11.348;2023-03-04T10:44:57;98017.34;;;1.62;100.00
70304;BME280;57712;48.752;11.348;2023-03-04T10:47:26;98002.19;;;1.73;100.00
70304;BME280;57712;48.752;11.348;2023-03-04T10:49:55;98009.22;;;1.62;100.00
70304;BME280;57712;48.752;11.348;2023-03-04T10:52:38;98005.41;;;1.95;100.00
70304;BME280;57712;48.752;11.348;2023-03-04T10:55:14;98009.59;;;1.77;100.00
70304;BME280;57712;48.752;11.348;2023-03-04T10:57:43;98000.88;;;1.83;100.00
70304;BME280;57712;48.752;11.348;2023-03-04T11:02:43;98002.97;;;1.58;100.00
70304;BME280;57712;48.752;11.348;2023-03-04T11:07:59;97993.56;;;1.68;100.00
70304;BME280;57712;48.752;11.348;2023-03-04T11:15:50;97995.69;;;2.25;100.00
70304;BME280;57712;48.752;11.348;2023-03-04T11:18:22;97995.22;;;2.04;100.00
70304;BME280;57712;48.752;11.348;2023-03-04T11:20:53;97990.66;;;2.08;100.00
70304;BME280;57712;48.752;11.348;2023-03-04T11:31:15;97977.53;;;1.91;100.00
70304;BME280;57712;48.752;11.348;2023-03-04T11:33:57;97980.56;;;2.05;100.00
70304;BME280;57712;48.752;11.348;2023-03-04T11:39:15;97970.53;;;2.06;100.00
70304;BME280;57712;48.752;11.348;2023-03-04T11:41:54;97968.00;;;1.97;100.00
70304;BME280;57712;48.752;11.348;2023-03-04T11:44:23;97961.22;;;2.03;100.00
70304;BME280;57712;48.752;11.348;2023-03-04T11:47:18;97960.19;;;1.92;100.00
70304;BME280;57712;48.752;11.348;2023-03-04T11:50:17;97960.38;;;1.99;100.00
70304;BME280;57712;48.752;11.348;2023-03-04T11:53:15;97952.84;;;2.08;100.00
70304;BME280;57712;48.752;11.348;2023-03-04T12:01:08;97948.66;;;2.11;100.00
70304;BME280;57712;48.752;11.348;2023-03-04T12:06:45;97944.03;;;2.11;100.00
70304;BME280;57712;48.752;11.348;2023-03-04T12:09:38;97937.50;;;2.12;100.00
70304;BME280;57712;48.752;11.348;2023-03-04T12:15:01;97941.16;;;2.20;100.00
70304;BME280;57712;48.752;11.348;2023-03-04T12:20:15;97928.00;;;2.38;100.00
70304;BME280;57712;48.752;11.348;2023-03-04T12:23:06;97926.25;;;2.45;100.00
70304;BME280;57712;48.752;11.348;2023-03-04T12:25:54;97919.66;;;2.62;100.00
70304;BME280;57712;48.752;11.348;2023-03-04T12:34:29;97900.19;;;2.76;100.00
70304;BME280;57712;48.752;11.348;2023-03-04T12:39:40;97903.41;;;2.62;100.00
70304;BME280;57712;48.752;11.348;2023-03-04T12:48:02;97893.75;;;2.42;100.00
70304;BME280;57712;48.752;11.348;2023-03-04T12:53:42;97893.59;;;2.73;100.00
70304;BME280;57712;48.752;11.348;2023-03-04T12:56:24;97890.81;;;2.70;100.00
70304;BME280;57712;48.752;11.348;2023-03-04T12:58:52;97889.75;;;2.55;100.00
70304;BME280;57712;48.752;11.348;2023-03-04T13:01:26;97889.44;;;2.60;100.00
70304;BME280;57712;48.752;11.348;2023-03-04T13:06:35;97878.41;;;2.69;100.00
70304;BME280;57712;48.752;11.348;2023-03-04T13:09:29;97890.88;;;2.73;100.00
70304;BME280;57712;48.752;11.348;2023-03-04T13:12:14;97881.69;;;2.78;100.00
70304;BME280;57712;48.752;11.348;2023-03-04T13:17:42;97877.78;;;2.75;100.00
70304;BME280;57712;48.752;11.348;2023-03-04T13:22:52;97883.13;;;2.52;100.00
70304;BME280;57712;48.752;11.348;2023-03-04T13:25:34;97880.06;;;2.73;100.00
70304;BME280;57712;48.752;11.348;2023-03-04T13:43:49;97874.94;;;2.68;100.00
70304;BME280;57712;48.752;11.348;2023-03-04T13:51:26;97882.63;;;2.66;100.00
70304;BME280;57712;48.752;11.348;2023-03-04T14:04:16;97871.44;;;2.68;100.00
70304;BME280;57712;48.752;11.348;2023-03-04T14:06:45;97865.56;;;2.62;100.00
70304;BME280;57712;48.752;11.348;2023-03-04T14:09:13;97864.97;;;2.72;100.00
70304;BME280;57712;48.752;11.348;2023-03-04T14:11:41;97861.72;;;2.44;100.00
70304;BME280;57712;48.752;11.348;2023-03-04T14:14:14;97874.09;;;2.45;100.00
70304;BME280;57712;48.752;11.348;2023-03-04T14:16:48;97872.38;;;2.56;100.00
70304;BME280;57712;48.752;11.348;2023-03-04T14:19:23;97868.06;;;2.51;100.00
70304;BME280;57712;48.752;11.348;2023-03-04T14:21:50;97859.72;;;2.60;100.00
70304;BME280;57712;48.752;11.348;2023-03-04T14:24:19;97868.19;;;2.58;100.00
70304;BME280;57712;48.752;11.348;2023-03-04T14:26:47;97862.91;;;2.66;100.00
70304;BME280;57712;48.752;11.348;2023-03-04T14:29:25;97859.00;;;2.63;100.00
70304;BME280;57712;48.752;11.348;2023-03-04T14:31:52;97866.50;;;2.50;100.00
70304;BME280;57712;48.752;11.348;2023-03-04T14:34:29;97862.06;;;2.62;100.00
70304;BME280;57712;48.752;11.348;2023-03-04T14:37:03;97859.84;;;2.67;100.00
70304;BME280;57712;48.752;11.348;2023-03-04T14:39:32;97857.38;;;2.58;100.00
70304;BME280;57712;48.752;11.348;2023-03-04T14:42:09;97860.28;;;2.50;100.00